createdAt,value
2019-04-25T00:00:53.048Z,6.80
2019-04-25T00:03:42.589Z,6.70
2019-04-25T00:06:32.653Z,6.70
2019-04-25T00:09:22.063Z,6.70
2019-04-25T00:12:13.948Z,6.60
2019-04-25T00:15:02.985Z,6.70
2019-04-25T00:17:52.211Z,6.60
2019-04-25T00:20:44.699Z,6.40
2019-04-25T00:23:33.495Z,6.50
2019-04-25T00:26:38.467Z,6.50
2019-04-25T00:29:28.164Z,6.60
2019-04-25T00:32:16.793Z,6.50
2019-04-25T00:35:05.259Z,6.70
2019-04-25T00:37:59.548Z,6.60
2019-04-25T00:40:48.149Z,6.50
2019-04-25T00:43:36.651Z,6.60
2019-04-25T00:46:26.975Z,6.40
2019-04-25T00:49:18.676Z,6.40
2019-04-25T00:52:07.560Z,6.50
2019-04-25T00:54:55.709Z,6.50
2019-04-25T00:57:46.691Z,6.50
2019-04-25T01:00:58.463Z,6.60
2019-04-25T01:03:47.191Z,6.40
2019-04-25T01:06:35.254Z,6.20
2019-04-25T01:09:24.961Z,6.20
2019-04-25T01:12:13.989Z,6.30
2019-04-25T01:15:05.145Z,6.20
2019-04-25T01:17:53.547Z,6.20
2019-04-25T01:20:43.442Z,6.30
2019-04-25T01:23:33.653Z,6.20
2019-04-25T01:26:23.925Z,6.10
2019-04-25T01:29:13.494Z,6.00
2019-04-25T01:32:04.409Z,6.10
2019-04-25T01:35:00.456Z,6.10
2019-04-25T01:37:58.704Z,6.10
2019-04-25T01:41:25.685Z,6.10
2019-04-25T01:44:24.048Z,6.00
2019-04-25T01:47:14.126Z,5.80
2019-04-25T01:50:04.008Z,5.80
2019-04-25T01:52:54.370Z,6.10
2019-04-25T01:55:53.022Z,6.00
2019-04-25T01:58:31.659Z,6.00
2019-04-25T02:01:20.441Z,5.90
2019-04-25T02:04:08.886Z,5.90
2019-04-25T02:06:57.309Z,5.90
2019-04-25T02:09:45.599Z,5.80
2019-04-25T02:12:40.021Z,5.80
2019-04-25T02:15:33.460Z,5.90
2019-04-25T02:18:23.692Z,5.90
2019-04-25T02:21:13.612Z,5.80
2019-04-25T02:24:04.318Z,5.80
2019-04-25T02:26:54.778Z,5.60
2019-04-25T02:29:44.507Z,5.60
2019-04-25T02:32:34.306Z,5.70
2019-04-25T02:35:21.766Z,5.60
2019-04-25T02:38:09.934Z,5.50
2019-04-25T02:41:00.249Z,5.70
2019-04-25T02:43:47.841Z,5.70
2019-04-25T02:46:59.187Z,5.60
2019-04-25T02:50:15.630Z,5.70
2019-04-25T02:53:25.450Z,5.70
2019-04-25T02:56:30.266Z,5.70
2019-04-25T02:59:08.468Z,5.70
2019-04-25T03:01:56.970Z,5.50
2019-04-25T03:04:54.643Z,5.60
2019-04-25T03:07:44.548Z,5.50
2019-04-25T03:10:34.861Z,5.50
2019-04-25T03:13:24.574Z,5.60
2019-04-25T03:16:14.027Z,5.40
2019-04-25T03:19:20.261Z,5.30
2019-04-25T03:22:11.499Z,5.40
2019-04-25T03:25:00.289Z,5.50
2019-04-25T03:27:48.502Z,5.40
2019-04-25T03:30:36.721Z,5.50
2019-04-25T03:33:25.885Z,5.30
2019-04-25T03:36:17.059Z,5.40
2019-04-25T03:39:06.620Z,5.50
2019-04-25T03:41:54.933Z,5.50
2019-04-25T03:44:43.843Z,5.50
2019-04-25T03:47:33.236Z,5.50
2019-04-25T03:50:24.149Z,5.20
2019-04-25T03:53:12.188Z,5.50
2019-04-25T03:56:04.467Z,5.40
2019-04-25T03:58:51.844Z,5.40
2019-04-25T04:01:40.017Z,5.30
2019-04-25T04:04:28.028Z,5.30
2019-04-25T04:07:16.555Z,5.20
2019-04-25T04:10:06.380Z,5.20
2019-04-25T04:12:54.343Z,5.70
2019-04-25T04:15:43.362Z,6.30
2019-04-25T04:18:37.442Z,6.90
2019-04-25T04:21:44.430Z,7.20
2019-04-25T04:24:37.759Z,7.40
2019-04-25T04:27:26.613Z,7.40
2019-04-25T04:30:16.490Z,7.50
2019-04-25T04:33:04.873Z,7.50
2019-04-25T04:35:54.343Z,7.50
2019-04-25T04:38:45.324Z,7.60
2019-04-25T04:41:33.925Z,7.60
2019-04-25T04:44:24.003Z,7.50
2019-04-25T04:47:15.002Z,7.40
2019-04-25T04:50:03.878Z,7.40
2019-04-25T04:52:53.927Z,7.30
2019-04-25T04:55:43.158Z,7.40
2019-04-25T04:58:31.194Z,7.60
2019-04-25T05:01:24.376Z,7.80
2019-04-25T05:04:25.093Z,8.00
2019-04-25T05:07:33.867Z,8.10
2019-04-25T05:10:23.656Z,8.30
2019-04-25T05:13:12.168Z,8.40
2019-04-25T05:16:05.048Z,8.40
2019-04-25T05:18:55.342Z,8.50
2019-04-25T05:21:45.647Z,8.60
2019-04-25T05:24:34.535Z,8.80
2019-04-25T05:27:35.734Z,8.80
2019-04-25T05:30:16.601Z,8.90
2019-04-25T05:33:05.265Z,9.00
2019-04-25T05:35:53.924Z,9.10
2019-04-25T05:38:45.097Z,9.20
2019-04-25T05:41:38.254Z,9.30
2019-04-25T05:44:27.493Z,9.40
2019-04-25T05:47:20.517Z,9.60
2019-04-25T05:50:07.822Z,9.80
2019-04-25T05:52:59.252Z,10.00
2019-04-25T05:55:48.498Z,10.20
2019-04-25T05:58:39.206Z,10.50
2019-04-25T06:01:30.098Z,10.50
2019-04-25T06:04:19.574Z,10.70
2019-04-25T06:07:07.911Z,10.80
2019-04-25T06:10:27.672Z,10.90
2019-04-25T06:13:48.010Z,11.00
2019-04-25T06:16:40.457Z,11.20
2019-04-25T06:19:39.647Z,11.50
2019-04-25T06:22:49.082Z,11.60
2019-04-25T06:25:39.788Z,11.80
2019-04-25T06:28:34.546Z,12.20
2019-04-25T06:31:23.599Z,12.50
2019-04-25T06:34:11.683Z,12.80
2019-04-25T06:37:08.093Z,12.80
2019-04-25T06:40:05.162Z,13.10
2019-04-25T06:42:55.332Z,13.20
2019-04-25T06:46:03.846Z,13.40
2019-04-25T06:49:01.500Z,13.70
2019-04-25T06:51:54.921Z,13.80
2019-04-25T06:54:53.217Z,13.90
2019-04-25T06:57:35.889Z,14.00
2019-04-25T07:00:32.698Z,14.30
2019-04-25T07:03:19.767Z,14.40
2019-04-25T07:06:08.318Z,14.60
2019-04-25T07:08:59.614Z,14.60
2019-04-25T07:11:53.768Z,14.70
2019-04-25T07:14:44.308Z,14.80
2019-04-25T07:17:37.270Z,15.10
2019-04-25T07:20:30.259Z,15.30
2019-04-25T07:23:18.637Z,15.50
2019-04-25T07:26:16.831Z,15.70
2019-04-25T07:29:39.536Z,15.80
2019-04-25T07:32:39.082Z,15.90
2019-04-25T07:35:29.001Z,16.30
2019-04-25T07:38:23.746Z,16.40
2019-04-25T07:41:14.677Z,16.60
2019-04-25T07:44:06.699Z,16.70
2019-04-25T07:46:55.145Z,16.90
2019-04-25T07:49:45.092Z,17.00
2019-04-25T07:52:34.344Z,17.30
2019-04-25T07:55:23.893Z,17.50
2019-04-25T07:58:15.568Z,17.60
2019-04-25T08:01:03.802Z,17.90
2019-04-25T08:03:53.641Z,18.10
2019-04-25T08:06:54.167Z,18.20
2019-04-25T08:09:45.528Z,18.50
2019-04-25T08:12:39.666Z,18.90
2019-04-25T08:15:47.142Z,19.20
2019-04-25T08:18:39.323Z,19.30
2019-04-25T08:21:30.661Z,20.00
2019-04-25T08:24:29.156Z,19.80
2019-04-25T08:27:20.300Z,20.20
2019-04-25T08:30:09.020Z,20.70
2019-04-25T08:33:03.660Z,20.70
2019-04-25T08:36:04.419Z,21.10
2019-04-25T08:38:45.813Z,21.10
2019-04-25T08:41:36.939Z,21.20
2019-04-25T08:44:25.929Z,21.00
2019-04-25T08:47:17.333Z,21.20
2019-04-25T08:50:29.533Z,21.30
2019-04-25T08:53:17.340Z,21.20
2019-04-25T08:56:18.447Z,21.60
2019-04-25T08:59:49.374Z,22.00
2019-04-25T09:02:48.413Z,22.00
2019-04-25T09:05:49.866Z,22.40
2019-04-25T09:08:39.342Z,22.20
2019-04-25T09:11:32.241Z,22.80
2019-04-25T09:14:19.732Z,22.80
2019-04-25T09:17:07.719Z,23.40
2019-04-25T09:19:58.976Z,23.10
2019-04-25T09:23:09.467Z,23.10
2019-04-25T09:26:24.221Z,23.40
2019-04-25T09:29:18.813Z,23.90
2019-04-25T09:32:01.813Z,24.20
2019-04-25T09:34:50.140Z,24.60
2019-04-25T09:37:38.758Z,24.30
2019-04-25T09:40:29.198Z,24.30
2019-04-25T09:43:24.093Z,24.30
2019-04-25T09:46:17.506Z,25.00
2019-04-25T09:49:16.919Z,25.50
2019-04-25T09:52:14.893Z,25.80
2019-04-25T09:55:18.340Z,25.30
2019-04-25T09:58:18.581Z,25.40
2019-04-25T10:01:11.854Z,25.50
2019-04-25T10:03:59.911Z,25.40
2019-04-25T10:06:48.054Z,25.60
2019-04-25T10:09:36.074Z,26.10
2019-04-25T10:12:24.831Z,25.60
2019-04-25T10:15:44.437Z,25.40
2019-04-25T10:18:34.400Z,25.20
2019-04-25T10:21:24.015Z,25.80
2019-04-25T10:24:15.182Z,25.40
2019-04-25T10:27:04.245Z,25.60
2019-04-25T10:29:54.492Z,25.80
2019-04-25T10:32:47.884Z,25.80
2019-04-25T10:35:46.738Z,26.40
2019-04-25T10:38:27.930Z,26.30
2019-04-25T10:41:16.614Z,26.30
2019-04-25T10:44:04.753Z,26.50
2019-04-25T10:46:55.272Z,27.10
2019-04-25T10:49:55.502Z,27.10
2019-04-25T10:52:48.400Z,27.40
2019-04-25T10:55:36.799Z,27.00
2019-04-25T10:58:31.698Z,27.00
2019-04-25T11:02:07.761Z,27.40
2019-04-25T11:05:23.930Z,28.00
2019-04-25T11:08:25.937Z,28.10
2019-04-25T11:11:19.037Z,28.10
2019-04-25T11:14:07.560Z,28.00
2019-04-25T11:16:56.407Z,28.20
2019-04-25T11:19:44.501Z,28.40
2019-04-25T11:22:32.062Z,28.20
2019-04-25T11:25:31.836Z,28.50
2019-04-25T11:28:20.768Z,28.60
2019-04-25T11:31:23.504Z,28.80
2019-04-25T11:34:24.441Z,28.90
2019-04-25T11:37:37.857Z,28.50
2019-04-25T11:40:34.628Z,28.40
2019-04-25T11:43:35.645Z,28.20
2019-04-25T11:46:29.021Z,28.20
2019-04-25T11:49:23.889Z,28.60
2019-04-25T11:52:33.656Z,28.70
2019-04-25T11:55:21.681Z,28.90
2019-04-25T11:58:09.342Z,28.50
2019-04-25T12:00:58.122Z,28.20
2019-04-25T12:03:47.921Z,28.40
2019-04-25T12:06:34.862Z,28.70
2019-04-25T12:09:23.981Z,29.20
2019-04-25T12:12:16.894Z,29.50
2019-04-25T12:15:04.523Z,29.80
2019-04-25T12:17:52.481Z,29.60
2019-04-25T12:20:51.036Z,29.60
2019-04-25T12:23:41.760Z,29.90
2019-04-25T12:26:29.220Z,29.00
2019-04-25T12:29:19.879Z,28.10
2019-04-25T12:32:14.193Z,28.90
2019-04-25T12:35:10.720Z,29.70
2019-04-25T12:38:08.363Z,30.40
2019-04-25T12:40:54.081Z,30.50
2019-04-25T12:43:47.069Z,30.60
2019-04-25T12:46:48.432Z,30.80
2019-04-25T12:49:39.666Z,30.60
2019-04-25T12:52:29.672Z,30.10
2019-04-25T12:55:21.768Z,30.10
2019-04-25T12:58:09.767Z,29.90
2019-04-25T13:00:59.945Z,29.10
2019-04-25T13:03:46.046Z,29.60
2019-04-25T13:06:33.856Z,30.70
2019-04-25T13:09:21.151Z,31.60
2019-04-25T13:12:08.537Z,32.50
2019-04-25T13:14:56.004Z,31.90
2019-04-25T13:17:43.664Z,31.70
2019-04-25T13:20:31.182Z,31.50
2019-04-25T13:23:24.174Z,31.70
2019-04-25T13:26:11.704Z,31.10
2019-04-25T13:29:30.477Z,31.50
2019-04-25T13:32:39.805Z,32.00
2019-04-25T13:35:33.510Z,33.30
2019-04-25T13:38:20.922Z,34.20
2019-04-25T13:41:08.659Z,34.40
2019-04-25T13:43:56.681Z,33.60
2019-04-25T13:46:45.711Z,33.50
2019-04-25T13:49:33.571Z,33.10
2019-04-25T13:52:21.297Z,31.00
2019-04-25T13:55:09.123Z,30.10
2019-04-25T13:57:56.737Z,30.20
2019-04-25T14:00:44.574Z,30.80
2019-04-25T14:03:33.959Z,30.20
2019-04-25T14:06:21.508Z,30.10
2019-04-25T14:09:13.358Z,30.20
2019-04-25T14:12:11.040Z,30.00
2019-04-25T14:14:58.998Z,30.40
2019-04-25T14:18:15.816Z,31.60
2019-04-25T14:21:13.274Z,32.90
2019-04-25T14:24:02.234Z,34.00
2019-04-25T14:26:56.895Z,33.90
2019-04-25T14:29:49.769Z,34.40
2019-04-25T14:32:38.211Z,34.20
2019-04-25T14:35:27.011Z,32.50
2019-04-25T14:38:26.791Z,31.60
2019-04-25T14:41:18.363Z,31.50
2019-04-25T14:44:06.009Z,32.30
2019-04-25T14:46:53.213Z,32.70
2019-04-25T14:49:40.513Z,34.20
2019-04-25T14:52:28.124Z,34.70
2019-04-25T14:55:43.719Z,34.60
2019-04-25T14:58:34.334Z,34.70
2019-04-25T15:01:24.018Z,34.50
2019-04-25T15:04:11.776Z,34.20
2019-04-25T15:06:59.831Z,33.20
2019-04-25T15:09:47.722Z,32.30
2019-04-25T15:12:35.438Z,32.10
2019-04-25T15:15:23.769Z,32.30
2019-04-25T15:18:12.185Z,33.00
2019-04-25T15:21:27.696Z,33.50
2019-04-25T15:24:14.649Z,33.90
2019-04-25T15:27:03.030Z,34.10
2019-04-25T15:29:50.648Z,34.00
2019-04-25T15:32:38.249Z,33.90
2019-04-25T15:35:32.145Z,34.20
2019-04-25T15:38:36.140Z,34.50
2019-04-25T15:41:39.277Z,34.10
2019-04-25T15:44:44.693Z,33.00
2019-04-25T15:47:32.755Z,33.10
2019-04-25T15:50:20.439Z,33.90
2019-04-25T15:53:08.341Z,32.90
2019-04-25T15:56:00.394Z,31.70
2019-04-25T15:58:47.953Z,30.80
2019-04-25T16:01:35.420Z,30.00
2019-04-25T16:04:22.760Z,29.10
2019-04-25T16:07:10.374Z,27.80
2019-04-25T16:09:57.470Z,27.50
2019-04-25T16:12:45.058Z,27.40
2019-04-25T16:15:33.232Z,27.20
2019-04-25T16:18:20.661Z,26.80
2019-04-25T16:21:08.544Z,26.70
2019-04-25T16:23:56.092Z,26.30
2019-04-25T16:26:43.489Z,26.00
2019-04-25T16:29:31.179Z,26.10
2019-04-25T16:32:21.334Z,26.00
2019-04-25T16:35:09.153Z,25.90
2019-04-25T16:38:13.954Z,26.00
2019-04-25T16:42:00.455Z,26.00
2019-04-25T16:44:48.147Z,25.90
2019-04-25T16:47:37.318Z,26.30
2019-04-25T16:50:24.910Z,26.20
2019-04-25T16:53:12.420Z,26.40
2019-04-25T16:55:59.712Z,26.40
2019-04-25T16:58:46.985Z,26.20
2019-04-25T17:01:34.515Z,26.10
2019-04-25T17:04:22.101Z,26.10
2019-04-25T17:07:10.207Z,25.80
2019-04-25T17:09:57.961Z,25.80
2019-04-25T17:12:45.590Z,25.60
2019-04-25T17:15:50.891Z,25.50
2019-04-25T17:18:45.105Z,25.40
2019-04-25T17:21:34.799Z,25.10
2019-04-25T17:24:22.675Z,24.60
2019-04-25T17:27:10.273Z,24.80
2019-04-25T17:29:58.326Z,25.70
2019-04-25T17:32:54.076Z,26.70
2019-04-25T17:35:59.851Z,26.40
2019-04-25T17:38:51.531Z,25.70
2019-04-25T17:41:39.053Z,25.20
2019-04-25T17:44:27.657Z,24.70
2019-04-25T17:47:14.998Z,24.40
2019-04-25T17:50:02.605Z,24.20
2019-04-25T17:52:50.306Z,23.80
2019-04-25T17:55:37.596Z,23.60
2019-04-25T17:58:25.143Z,23.70
2019-04-25T18:01:34.278Z,24.60
2019-04-25T18:04:22.014Z,25.50
2019-04-25T18:07:09.525Z,26.00
2019-04-25T18:09:57.200Z,26.10
2019-04-25T18:12:44.702Z,25.70
2019-04-25T18:15:39.628Z,25.00
2019-04-25T18:18:46.696Z,24.20
2019-04-25T18:21:35.462Z,23.40
2019-04-25T18:24:50.361Z,22.80
2019-04-25T18:27:42.817Z,22.40
2019-04-25T18:30:30.895Z,22.10
2019-04-25T18:33:30.574Z,21.70
2019-04-25T18:36:43.023Z,21.40
2019-04-25T18:39:37.732Z,20.90
2019-04-25T18:42:48.295Z,20.50
2019-04-25T18:45:37.386Z,20.30
2019-04-25T18:48:25.770Z,19.90
2019-04-25T18:51:13.341Z,19.70
2019-04-25T18:54:18.875Z,19.30
2019-04-25T18:57:23.581Z,19.00
2019-04-25T19:00:28.985Z,18.90
2019-04-25T19:03:38.316Z,18.80
2019-04-25T19:06:30.450Z,18.70
2019-04-25T19:09:17.790Z,18.80
2019-04-25T19:12:05.287Z,18.80
2019-04-25T19:14:53.326Z,18.50
2019-04-25T19:17:41.381Z,18.20
2019-04-25T19:20:29.245Z,18.00
2019-04-25T19:23:16.909Z,17.90
2019-04-25T19:26:04.781Z,17.70
2019-04-25T19:28:52.064Z,17.50
2019-04-25T19:31:39.873Z,17.30
2019-04-25T19:34:29.248Z,16.90
2019-04-25T19:37:17.026Z,16.70
2019-04-25T19:40:43.990Z,16.40
2019-04-25T19:43:45.324Z,16.10
2019-04-25T19:46:40.351Z,15.90
2019-04-25T19:49:29.525Z,15.70
2019-04-25T19:52:16.832Z,15.60
2019-04-25T19:55:04.475Z,15.50
2019-04-25T19:57:52.519Z,15.30
2019-04-25T20:00:40.235Z,15.10
2019-04-25T20:03:49.525Z,14.90
2019-04-25T20:06:54.243Z,14.60
2019-04-25T20:10:19.110Z,14.40
2019-04-25T20:13:07.363Z,14.20
2019-04-25T20:15:54.686Z,14.00
2019-04-25T20:18:42.111Z,13.90
2019-04-25T20:21:29.949Z,13.80
2019-04-25T20:24:17.522Z,13.70
2019-04-25T20:27:05.204Z,13.60
2019-04-25T20:29:57.270Z,13.50
2019-04-25T20:32:44.742Z,13.30
2019-04-25T20:35:33.538Z,13.40
2019-04-25T20:38:21.132Z,13.40
2019-04-25T20:41:08.992Z,13.40
2019-04-25T20:43:57.026Z,13.20
2019-04-25T20:46:46.646Z,13.10
2019-04-25T20:49:34.046Z,13.10
2019-04-25T20:52:21.387Z,13.00
2019-04-25T20:55:09.293Z,12.90
2019-04-25T20:57:59.697Z,12.70
2019-04-25T21:01:12.941Z,12.70
2019-04-25T21:04:13.076Z,12.70
2019-04-25T21:06:59.849Z,12.60
2019-04-25T21:09:48.976Z,12.50
2019-04-25T21:12:37.666Z,12.40
2019-04-25T21:15:47.637Z,12.30
2019-04-25T21:19:02.028Z,12.30
2019-04-25T21:21:50.572Z,12.40
2019-04-25T21:24:38.026Z,12.20
2019-04-25T21:27:31.511Z,12.10
2019-04-25T21:30:19.398Z,12.00
2019-04-25T21:33:06.580Z,12.00
2019-04-25T21:35:54.533Z,12.00
2019-04-25T21:38:43.027Z,11.80
2019-04-25T21:41:52.360Z,11.80
2019-04-25T21:44:40.950Z,11.80
2019-04-25T21:47:28.979Z,11.70
2019-04-25T21:50:16.707Z,11.70
2019-04-25T21:53:04.405Z,11.60
2019-04-25T21:55:53.169Z,11.60
2019-04-25T21:58:41.410Z,11.50
2019-04-25T22:01:37.329Z,11.40
2019-04-25T22:04:37.975Z,11.40
2019-04-25T22:07:14.293Z,11.40
2019-04-25T22:10:04.005Z,11.40
2019-04-25T22:12:51.299Z,11.40
2019-04-25T22:15:38.617Z,11.30
2019-04-25T22:18:27.007Z,11.20
2019-04-25T22:21:14.768Z,11.10
2019-04-25T22:24:08.979Z,11.00
2019-04-25T22:26:53.754Z,11.00
2019-04-25T22:29:42.783Z,11.00
2019-04-25T22:32:49.322Z,10.90
2019-04-25T22:35:41.521Z,10.80
2019-04-25T22:38:29.375Z,10.80
2019-04-25T22:41:17.232Z,10.60
2019-04-25T22:44:06.079Z,10.70
2019-04-25T22:46:54.172Z,10.70
2019-04-25T22:49:42.070Z,10.70
2019-04-25T22:52:29.727Z,10.60
2019-04-25T22:55:16.866Z,10.60
2019-04-25T22:58:05.676Z,10.50
2019-04-25T23:00:53.514Z,10.40
2019-04-25T23:03:43.226Z,10.50
2019-04-25T23:06:31.065Z,10.40
2019-04-25T23:09:18.655Z,10.20
2019-04-25T23:12:06.884Z,10.10
2019-04-25T23:14:54.644Z,10.10
2019-04-25T23:17:42.510Z,10.10
2019-04-25T23:20:30.568Z,10.10
2019-04-25T23:23:18.285Z,9.90
2019-04-25T23:26:13.142Z,10.00
2019-04-25T23:29:02.380Z,10.10
2019-04-25T23:31:49.681Z,9.80
2019-04-25T23:34:37.566Z,9.50
2019-04-25T23:37:24.894Z,9.60
2019-04-25T23:40:12.224Z,9.30
2019-04-25T23:42:59.536Z,9.20
2019-04-25T23:45:46.822Z,9.00
2019-04-25T23:48:34.897Z,8.90
2019-04-25T23:51:22.405Z,8.90
2019-04-25T23:54:10.836Z,8.60
2019-04-25T23:56:57.941Z,8.50
2019-04-25T23:59:45.820Z,8.30
